| time (UTC) | temp C | wind direction | speed KPH | gust KPH | rain 1hr cm | rain 24hr cm | rain mn cm | humidity % | barometer mb |
| 20260504194904 | 18 | 224 | 16.1 | 29.0 | 0.00 | 0.00 | 0.00 | 57 | 1010.9 |
| 20260504194408 | 18 | 214 | 17.7 | 33.8 | 0.00 | 0.00 | 0.00 | 57 | 1011.0 |
| 20260504193909 | 18 | 225 | 16.1 | 33.8 | 0.00 | 0.00 | 0.00 | 57 | 1010.9 |
| 20260504193409 | 18 | 217 | 16.1 | 29.0 | 0.00 | 0.00 | 0.00 | 57 | 1011.1 |
| 20260504192909 | 18 | 211 | 16.1 | 29.0 | 0.00 | 0.00 | 0.00 | 57 | 1011.1 |
| 20260504192403 | 18 | 224 | 19.3 | 29.0 | 0.00 | 0.00 | 0.00 | 56 | 1011.1 |
| 20260504191908 | 18 | 220 | 17.7 | 35.4 | 0.00 | 0.00 | 0.00 | 56 | 1011.1 |
| 20260504191408 | 18 | 216 | 17.7 | 29.0 | 0.00 | 0.00 | 0.00 | 56 | 1011.1 |
| 20260504190908 | 18 | 227 | 17.7 | 32.2 | 0.00 | 0.00 | 0.00 | 56 | 1011.2 |
| 20260504190408 | 18 | 226 | 16.1 | 32.2 | 0.00 | 0.00 | 0.00 | 56 | 1011.3 |
| 20260504185908 | 18 | 230 | 16.1 | 29.0 | 0.00 | 0.00 | 0.00 | 56 | 1011.4 |
| 20260504185409 | 18 | 216 | 17.7 | 33.8 | 0.00 | 0.00 | 0.00 | 56 | 1011.4 |
| 20260504184908 | 18 | 232 | 16.1 | 38.6 | 0.00 | 0.00 | 0.00 | 56 | 1011.5 |
| 20260504184409 | 18 | 226 | 16.1 | 29.0 | 0.00 | 0.00 | 0.00 | 56 | 1011.6 |
| 20260504183909 | 18 | 225 | 16.1 | 33.8 | 0.00 | 0.00 | 0.00 | 56 | 1011.6 |
| 20260504183409 | 18 | 232 | 14.5 | 29.0 | 0.00 | 0.00 | 0.00 | 56 | 1011.6 |
| 20260504182909 | 18 | 223 | 14.5 | 29.0 | 0.00 | 0.00 | 0.00 | 56 | 1011.6 |
| 20260504182408 | 18 | 217 | 16.1 | 25.7 | 0.00 | 0.00 | 0.00 | 57 | 1011.8 |
| 20260504181908 | 18 | 224 | 17.7 | 33.8 | 0.00 | 0.00 | 0.00 | 57 | 1011.8 |
| 20260504181408 | 18 | 226 | 16.1 | 27.4 | 0.00 | 0.00 | 0.00 | 57 | 1011.8 |
| 20260504180909 | 18 | 217 | 19.3 | 27.4 | 0.00 | 0.00 | 0.00 | 57 | 1011.8 |
| 20260504175908 | 18 | 224 | 16.1 | 24.1 | 0.00 | 0.00 | 0.00 | 57 | 1011.9 |
| 20260504174908 | 18 | 218 | 16.1 | 27.4 | 0.00 | 0.00 | 0.00 | 58 | 1011.9 |
| 20260504174408 | 18 | 221 | 16.1 | 33.8 | 0.00 | 0.00 | 0.00 | 58 | 1012.0 |
| 20260504173907 | 18 | 213 | 17.7 | 29.0 | 0.00 | 0.00 | 0.00 | 58 | 1012.1 |
| 20260504173408 | 18 | 227 | 16.1 | 27.4 | 0.00 | 0.00 | 0.00 | 59 | 1012.1 |
| 20260504172908 | 18 | 223 | 14.5 | 27.4 | 0.00 | 0.00 | 0.00 | 58 | 1012.2 |
| 20260504172407 | 18 | 228 | 16.1 | 27.4 | 0.00 | 0.00 | 0.00 | 58 | 1012.3 |
| 20260504171408 | 18 | 232 | 14.5 | 25.7 | 0.00 | 0.00 | 0.00 | 59 | 1012.5 |
| 20260504170907 | 18 | 227 | 16.1 | 27.4 | 0.00 | 0.00 | 0.00 | 58 | 1012.5 |
| 20260504150910 | 20 | 239 | 12.9 | 20.9 | 0.00 | 0.00 | 0.00 | 53 | 1013.9 |
| 20260504150408 | 20 | 234 | 11.3 | 19.3 | 0.00 | 0.00 | 0.00 | 52 | 1013.9 |
| 20260504140909 | 18 | 237 | 12.9 | 24.1 | 0.00 | 0.00 | 0.00 | 54 | 1014.1 |
| 20260504130408 | 16 | 255 | 11.3 | 22.5 | 0.00 | 0.00 | 0.00 | 59 | 1014.7 |
| 20260504110409 | 11 | 275 | 9.7 | 22.5 | 0.00 | 0.00 | 0.00 | 66 | 1014.7 |
| 20260504100408 | 10 | 278 | 14.5 | 24.1 | 0.00 | 0.00 | 0.00 | 72 | 1014.5 |
| 20260504081908 | 11 | 277 | 9.7 | 19.3 | 0.00 | 0.00 | 0.00 | 63 | 1013.7 |
| 20260504080405 | 11 | 279 | 9.7 | 19.3 | 0.00 | 0.00 | 0.00 | 64 | 1013.7 |
| 20260504070408 | 11 | 279 | 11.3 | 19.3 | 0.00 | 0.00 | 0.00 | 61 | 1013.2 |
| 20260504050408 | 11 | 263 | 9.7 | 16.1 | 0.00 | 0.00 | 0.00 | 65 | 1012.9 |
| 20260504045905 | 11 | 274 | 8.0 | 19.3 | 0.00 | 0.00 | 0.00 | 64 | 1012.8 |
| 20260504045406 | 11 | 267 | 9.7 | 19.3 | 0.00 | 0.00 | 0.00 | 64 | 1012.8 |
| 20260504044908 | 11 | 276 | 6.4 | 14.5 | 0.00 | 0.00 | 0.00 | 64 | 1012.8 |
| 20260504043905 | 11 | 283 | 8.0 | 22.5 | 0.00 | 0.00 | 0.00 | 64 | 1012.8 |
| 20260504042909 | 11 | 277 | 11.3 | 22.5 | 0.00 | 0.00 | 0.00 | 63 | 1012.8 |
| 20260504042407 | 11 | 266 | 8.0 | 19.3 | 0.00 | 0.00 | 0.00 | 63 | 1012.8 |
| 20260504041908 | 11 | 279 | 11.3 | 24.1 | 0.00 | 0.00 | 0.00 | 63 | 1012.8 |
| 20260504040906 | 11 | 269 | 9.7 | 16.1 | 0.00 | 0.00 | 0.00 | 63 | 1012.6 |
| 20260504035909 | 11 | 271 | 8.0 | 16.1 | 0.00 | 0.00 | 0.00 | 62 | 1012.6 |
| 20260504035406 | 11 | 254 | 8.0 | 12.9 | 0.00 | 0.00 | 0.00 | 60 | 1012.5 |
| 20260504034909 | 11 | 269 | 8.0 | 16.1 | 0.00 | 0.00 | 0.00 | 60 | 1012.7 |
| 20260504034408 | 11 | 268 | 6.4 | 14.5 | 0.00 | 0.00 | 0.00 | 60 | 1012.6 |
| 20260504033907 | 11 | 277 | 8.0 | 14.5 | 0.00 | 0.00 | 0.00 | 61 | 1012.5 |
| 20260504033408 | 11 | 283 | 9.7 | 19.3 | 0.00 | 0.00 | 0.00 | 64 | 1012.5 |
| 20260504031908 | 11 | 264 | 8.0 | 14.5 | 0.00 | 0.00 | 0.00 | 64 | 1012.4 |
| 20260504031409 | 11 | 265 | 6.4 | 12.9 | 0.00 | 0.00 | 0.00 | 63 | 1012.4 |
| 20260504030908 | 11 | 262 | 6.4 | 12.9 | 0.00 | 0.00 | 0.00 | 62 | 1012.5 |
| 20260504030408 | 11 | 267 | 8.0 | 12.9 | 0.00 | 0.00 | 0.00 | 62 | 1012.5 |
| 20260504025908 | 11 | 276 | 9.7 | 14.5 | 0.00 | 0.00 | 0.00 | 62 | 1012.5 |
| 20260504025405 | 11 | 281 | 11.3 | 22.5 | 0.00 | 0.00 | 0.00 | 64 | 1012.5 |
| 20260504024908 | 11 | 281 | 9.7 | 14.5 | 0.00 | 0.00 | 0.00 | 65 | 1012.4 |
| 20260504024409 | 11 | 279 | 8.0 | 12.9 | 0.00 | 0.00 | 0.00 | 65 | 1012.5 |
| 20260504023905 | 11 | 249 | 3.2 | 9.7 | 0.00 | 0.00 | 0.00 | 65 | 1012.5 |
| 20260504023408 | 11 | 277 | 6.4 | 12.9 | 0.00 | 0.00 | 0.00 | 64 | 1012.6 |
| 20260504022908 | 11 | 276 | 6.4 | 14.5 | 0.00 | 0.00 | 0.00 | 64 | 1012.6 |
| 20260504021909 | 11 | 265 | 8.0 | 12.9 | 0.00 | 0.00 | 0.00 | 62 | 1012.4 |
| 20260504021409 | 11 | 261 | 4.8 | 11.3 | 0.00 | 0.00 | 0.00 | 61 | 1012.4 |
| 20260504020908 | 11 | 259 | 6.4 | 11.3 | 0.00 | 0.00 | 0.00 | 60 | 1012.3 |
| 20260504020409 | 11 | 259 | 4.8 | 12.9 | 0.00 | 0.00 | 0.00 | 60 | 1012.4 |
| 20260504015905 | 11 | 261 | 8.0 | 11.3 | 0.00 | 0.00 | 0.00 | 60 | 1012.4 |
| 20260504015409 | 11 | 261 | 4.8 | 8.0 | 0.00 | 0.00 | 0.00 | 59 | 1012.4 |
| 20260504014908 | 11 | 272 | 4.8 | 11.3 | 0.00 | 0.00 | 0.00 | 57 | 1012.4 |
| 20260504014409 | 11 | 274 | 6.4 | 11.3 | 0.00 | 0.00 | 0.00 | 55 | 1012.3 |
| 20260504013408 | 11 | 255 | 4.8 | 8.0 | 0.00 | 0.00 | 0.00 | 49 | 1012.2 |
| 20260504012908 | 11 | 306 | 0.0 | 0.0 | 0.00 | 0.00 | 0.00 | 46 | 1012.2 |
| 20260504011909 | 11 | 306 | 0.0 | 0.0 | 0.00 | 0.00 | 0.00 | 42 | 1012.1 |
| 20260504011408 | 12 | 306 | 0.0 | 0.0 | 0.00 | 0.00 | 0.00 | 42 | 1012.0 |
| 20260504010909 | 12 | 306 | 0.0 | 0.0 | 0.00 | 0.00 | 0.00 | 40 | 1011.9 |
| 20260504010408 | 12 | 306 | 0.0 | 0.0 | 0.00 | 0.00 | 0.00 | 39 | 1011.8 |
| 20260504005908 | 12 | 306 | 0.0 | 0.0 | 0.00 | 0.00 | 0.00 | 38 | 1011.9 |
| 20260504004908 | 12 | 306 | 0.0 | 0.0 | 0.00 | 0.00 | 0.00 | 36 | 1011.6 |
| 20260504003904 | 13 | 306 | 0.0 | 1.6 | 0.00 | 0.00 | 0.00 | 34 | 1011.5 |
| 20260504003408 | 13 | 294 | 0.0 | 0.0 | 0.00 | 0.00 | 0.00 | 34 | 1011.5 |
| 20260504002904 | 13 | 294 | 0.0 | 1.6 | 0.00 | 0.00 | 0.00 | 33 | 1011.3 |
| 20260504002408 | 13 | 309 | 0.0 | 3.2 | 0.00 | 0.00 | 0.00 | 32 | 1011.2 |
| 20260504001908 | 13 | 296 | 3.2 | 8.0 | 0.00 | 0.00 | 0.00 | 32 | 1011.2 |
| 20260504001408 | 13 | 299 | 1.6 | 12.9 | 0.00 | 0.00 | 0.00 | 32 | 1011.2 |
| 20260504000909 | 14 | 297 | 3.2 | 9.7 | 0.00 | 0.00 | 0.00 | 32 | 1011.1 |
| 20260504000404 | 14 | 315 | 3.2 | 4.8 | 0.00 | 0.00 | 0.00 | 31 | 1011.0 |
| 20260503235909 | 14 | 303 | 4.8 | 9.7 | 0.00 | 0.00 | 0.00 | 30 | 1011.0 |
| 20260503235405 | 14 | 342 | 1.6 | 4.8 | 0.00 | 0.00 | 0.00 | 30 | 1010.9 |
| 20260503234905 | 15 | 336 | 1.6 | 8.0 | 0.00 | 0.00 | 0.00 | 29 | 1011.0 |
| 20260503234408 | 15 | 303 | 3.2 | 12.9 | 0.00 | 0.00 | 0.00 | 29 | 1010.7 |
| 20260503233908 | 15 | 292 | 4.8 | 14.5 | 0.00 | 0.00 | 0.00 | 28 | 1010.8 |
| 20260503233408 | 15 | 335 | 4.8 | 12.9 | 0.00 | 0.00 | 0.00 | 28 | 1010.7 |
| 20260503232909 | 15 | 310 | 6.4 | 12.9 | 0.00 | 0.00 | 0.00 | 27 | 1010.6 |
| 20260503231908 | 15 | 314 | 8.0 | 16.1 | 0.00 | 0.00 | 0.00 | 26 | 1010.4 |
| 20260503230904 | 15 | 355 | 4.8 | 14.5 | 0.00 | 0.00 | 0.00 | 26 | 1010.4 |
| 20260503230408 | 16 | 320 | 8.0 | 20.9 | 0.00 | 0.00 | 0.00 | 26 | 1010.4 |
| 20260503225908 | 16 | 2 | 9.7 | 16.1 | 0.00 | 0.00 | 0.00 | 26 | 1010.4 |
| 20260503224904 | 16 | 307 | 9.7 | 24.1 | 0.00 | 0.00 | 0.00 | 26 | 1010.4 |
| 20260503224408 | 16 | 8 | 4.8 | 19.3 | 0.00 | 0.00 | 0.00 | 25 | 1010.3 |
| 20260503223908 | 16 | 353 | 8.0 | 20.9 | 0.00 | 0.00 | 0.00 | 24 | 1010.4 |
| 20260503223408 | 16 | 331 | 12.9 | 25.7 | 0.00 | 0.00 | 0.00 | 24 | 1010.4 |
| 20260503222908 | 16 | 320 | 11.3 | 29.0 | 0.00 | 0.00 | 0.00 | 25 | 1010.2 |
| 20260503222406 | 16 | 337 | 8.0 | 16.1 | 0.00 | 0.00 | 0.00 | 25 | 1010.3 |
| 20260503221908 | 16 | 327 | 11.3 | 29.0 | 0.00 | 0.00 | 0.00 | 25 | 1010.2 |
| 20260503221409 | 16 | 290 | 9.7 | 25.7 | 0.00 | 0.00 | 0.00 | 26 | 1010.1 |
| 20260503220907 | 16 | 323 | 8.0 | 22.5 | 0.00 | 0.00 | 0.00 | 26 | 1010.2 |
| 20260503215406 | 16 | 298 | 8.0 | 24.1 | 0.00 | 0.00 | 0.00 | 27 | 1010.3 |
| 20260503214908 | 16 | 338 | 14.5 | 32.2 | 0.00 | 0.00 | 0.00 | 26 | 1010.3 |
| 20260503214409 | 16 | 351 | 11.3 | 25.7 | 0.00 | 0.00 | 0.00 | 26 | 1010.3 |
| 20260503213907 | 16 | 334 | 8.0 | 27.4 | 0.00 | 0.00 | 0.00 | 26 | 1010.3 |
| 20260503213408 | 16 | 285 | 14.5 | 29.0 | 0.00 | 0.00 | 0.00 | 27 | 1010.2 |
| 20260503212909 | 16 | 312 | 8.0 | 32.2 | 0.00 | 0.00 | 0.00 | 28 | 1010.2 |
| 20260503212408 | 16 | 327 | 12.9 | 24.1 | 0.00 | 0.00 | 0.00 | 27 | 1010.1 |
| 20260503211908 | 16 | 328 | 19.3 | 37.0 | 0.00 | 0.00 | 0.00 | 25 | 1010.1 |
| 20260503211408 | 16 | 329 | 12.9 | 29.0 | 0.00 | 0.00 | 0.00 | 27 | 1010.1 |
| 20260503210908 | 16 | 305 | 14.5 | 33.8 | 0.00 | 0.00 | 0.00 | 28 | 1010.1 |
| 20260503210408 | 16 | 288 | 14.5 | 29.0 | 0.00 | 0.00 | 0.00 | 28 | 1010.0 |
| 20260503205908 | 16 | 318 | 16.1 | 32.2 | 0.00 | 0.00 | 0.00 | 26 | 1010.0 |
| 20260503205408 | 16 | 327 | 14.5 | 40.2 | 0.00 | 0.00 | 0.00 | 27 | 1010.0 |
| 20260503204908 | 16 | 332 | 12.9 | 33.8 | 0.00 | 0.00 | 0.00 | 27 | 1010.1 |
| 20260503204409 | 15 | 332 | 16.1 | 29.0 | 0.00 | 0.00 | 0.00 | 28 | 1010.0 |
| 20260503203907 | 15 | 324 | 19.3 | 37.0 | 0.00 | 0.00 | 0.00 | 28 | 1010.1 |
| 20260503203413 | 15 | 348 | 19.3 | 46.7 | 0.00 | 0.00 | 0.00 | 28 | 1009.9 |
| 20260503202908 | 15 | 311 | 14.5 | 35.4 | 0.00 | 0.00 | 0.00 | 30 | 1010.0 |
| 20260503202407 | 15 | 328 | 12.9 | 25.7 | 0.00 | 0.00 | 0.00 | 31 | 1010.1 |
| 20260503201906 | 15 | 307 | 19.3 | 35.4 | 0.00 | 0.00 | 0.00 | 31 | 1010.1 |
| 20260503201409 | 15 | 341 | 11.3 | 27.4 | 0.00 | 0.00 | 0.00 | 30 | 1010.1 |
| 20260503200408 | 15 | 342 | 14.5 | 33.8 | 0.00 | 0.00 | 0.00 | 29 | 1010.2 |
| 20260503195908 | 15 | 327 | 12.9 | 29.0 | 0.00 | 0.00 | 0.00 | 30 | 1010.3 |
| 20260503195407 | 16 | 322 | 12.9 | 25.7 | 0.00 | 0.00 | 0.00 | 30 | 1010.4 |